Wildersville, TN

9:11 PM CDT on March 27, 2015 (GMT -0500)
McKellar-Sipes Regional | | Change Station
CLOSE
Current Station
Airport
Location: Jackson,
Elevation: 433 ft
Nearby Weather Stations
Active Advisory: Freeze Warning, Freeze Watch

Elev 433 ft 35.59 °N, 88.92 °W | Updated 18 minutes ago

Partly Cloudy
Partly Cloudy
35 °F
Feels Like 29 °F
N
7
Wind Variable Wind from North

Today
High -- | Low -- °F
--% Chance of Precip.
Yesterday
High -- | Low -- °F
Precip. -- in
6:47 AM 7:11 PM
First Quarter, 58% visible
Pressure 30.17 in
Visibility 10.0 miles
Clouds Clear
Windchill 29 °F
Dew Point 23 °F
Humidity 61%
Rainfall 0.00 in
Snow Depth Not available.
UV 0 out of 12
Pollen 8.80 out of 12
Air Quality Not available.
Flu Activity Not available.
METAR KMKL 280153Z AUTO 36006KT 10SM CLR 02/M05 A3017 RMK AO2 SLP217 T00171050

More Conditions Fewer Conditions

Pressure 30.17 in
Visibility 10.0 miles
Clouds Clear
Windchill 29 °F
Dew Point 23 °F
Humidity 61%
Rainfall 0.00 in
Snow Depth Not available.
UV 0 out of 12
Pollen 8.80 out of 12
Air Quality Not available.
Flu Activity Not available.
METAR KMKL 280153Z AUTO 36006KT 10SM CLR 02/M05 A3017 RMK AO2 SLP217 T00171050

More Conditions Fewer Conditions

10-Day Weather Forecast

Almanac

Astronomy

Mar. 27, 2015 Rise Set
Actual Time
Civil Twilight
Nautical Twilight
Astronomical Twilight
Moon
Length of Visible Light
Length of Day
Tomorrow will be .
, % of the Moon is Illuminated

Today's Extremes

State Highs State Lows

Community

WunderPhotos

Upload Photos

1,808,913 photos uploaded!

WunderBlogs® & News

Nearby

Air Quality

  Air Quality AQ Index Pollutant
Not available.

Snow Depth

Station Depth Elevation

Earthquake Activity

City Distance Mag. Time & Date
Minimum magnitude displayed is 2.5.

Coastal Water Temperatures

Place Temperature

Stations

Nearby Weather Stations

Station Location Temp. Windchill Dew Point Humidity Wind Precip. Elev Updated Type
                   
Freeze Warning, Freeze Watch
Statement as of 8:33 PM CDT on March 27, 2015

... Freeze warning now in effect from 1 am to 7 am CDT Saturday...
... Freeze watch remains in effect from late Saturday night
through Sunday morning...

* temperature... 27 degrees to 32 degrees.

* Timing... late tonight through early Saturday morning.

* Impacts... sensitive vegetation may be damaged or killed.

Precautionary/preparedness actions...

A freeze warning means sub-freezing temperatures are imminent or
highly likely. These conditions will kill crops and other
sensitive vegetation.

A freeze watch means sub-freezing temperatures are possible.
These conditions could kill crops and other sensitive vegetation.